EJU87EW EHAM-EGKK
Flight info
| Callsign | EJU87EW |
|---|---|
| Flight time | 0h 49m |
| Altitude | 24000 |
| Route | IDRID L980 ABNED Z344 AMRIV Q63 ARREK Y4 TEBRA |
| Aircraft | A319/M-SDE3FGHIRWY/LB1 |
Departure
| Time | 2026-05-07 18:24 |
|---|---|
| Airport | Amsterdam Airport Schiphol (EHAM) |
Arrival
| Time | 2026-05-07 19:14 |
|---|---|
| Airport | London Gatwick Airport (EGKK) |
| Time | Latitude | Longitude | Altitude | Speed | Heading |
|---|---|---|---|---|---|
| 2026-05-07 17:55 | 52.31004 | 4.75409 | 0 ft | 0 kts | 148° |
| 2026-05-07 18:13 | 52.31014 | 4.75399 | 0 ft | 0 kts | 148° |
| 2026-05-07 18:13 | 52.31023 | 4.75388 | 0 ft | 2 kts | 132° |
| 2026-05-07 18:13 | 52.31031 | 4.75368 | 0 ft | 2 kts | 114° |
| 2026-05-07 18:13 | 52.31035 | 4.75345 | 0 ft | 2 kts | 93° |
| 2026-05-07 18:14 | 52.31034 | 4.75320 | 0 ft | 2 kts | 73° |
| 2026-05-07 18:14 | 52.31030 | 4.75304 | 0 ft | 0 kts | 59° |
| 2026-05-07 18:14 | 52.31027 | 4.75295 | -1 ft | 0 kts | 57° |
| 2026-05-07 18:17 | 52.31044 | 4.75340 | 0 ft | 17 kts | 57° |
| 2026-05-07 18:18 | 52.31155 | 4.75464 | -1 ft | 21 kts | 359° |
| 2026-05-07 18:18 | 52.31333 | 4.75447 | 0 ft | 29 kts | 358° |
| 2026-05-07 18:18 | 52.31486 | 4.75430 | 0 ft | 11 kts | 335° |
| 2026-05-07 18:18 | 52.31507 | 4.75304 | -1 ft | 13 kts | 266° |
| 2026-05-07 18:19 | 52.31498 | 4.75022 | 0 ft | 30 kts | 267° |
| 2026-05-07 18:19 | 52.31486 | 4.74683 | 0 ft | 29 kts | 266° |
| 2026-05-07 18:19 | 52.31474 | 4.74353 | 0 ft | 27 kts | 266° |
| 2026-05-07 18:19 | 52.31410 | 4.74141 | 0 ft | 20 kts | 200° |
| 2026-05-07 18:20 | 52.31256 | 4.74122 | 0 ft | 28 kts | 183° |
| 2026-05-07 18:20 | 52.31031 | 4.74101 | -1 ft | 28 kts | 183° |
| 2026-05-07 18:20 | 52.30845 | 4.74083 | 0 ft | 25 kts | 183° |
| 2026-05-07 18:20 | 52.30672 | 4.74069 | -1 ft | 24 kts | 183° |
| 2026-05-07 18:21 | 52.30502 | 4.74054 | 0 ft | 24 kts | 182° |
| 2026-05-07 18:21 | 52.30334 | 4.74033 | -1 ft | 24 kts | 195° |
| 2026-05-07 18:21 | 52.30226 | 4.73919 | 0 ft | 3 kts | 220° |
| 2026-05-07 18:21 | 52.30225 | 4.73918 | -1 ft | 0 kts | 220° |
| 2026-05-07 18:22 | 52.30209 | 4.73896 | -1 ft | 11 kts | 221° |
| 2026-05-07 18:22 | 52.30190 | 4.73787 | -1 ft | 17 kts | 290° |
| 2026-05-07 18:22 | 52.30278 | 4.73741 | -1 ft | 0 kts | 3° |
| 2026-05-07 18:23 | 52.30374 | 4.73749 | 0 ft | 45 kts | 2° |
| 2026-05-07 18:23 | 52.30950 | 4.73803 | 0 ft | 118 kts | 3° |
| 2026-05-07 18:23 | 52.31970 | 4.73891 | 120 ft | 166 kts | 3° |
| 2026-05-07 18:24 | 52.33179 | 4.73985 | 587 ft | 184 kts | 3° |
| 2026-05-07 18:24 | 52.34506 | 4.74040 | 1249 ft | 199 kts | 2° |
| 2026-05-07 18:24 | 52.35849 | 4.73716 | 2144 ft | 201 kts | 348° |
| 2026-05-07 18:24 | 52.37247 | 4.73022 | 2654 ft | 220 kts | 344° |
| 2026-05-07 18:25 | 52.38762 | 4.72212 | 3209 ft | 239 kts | 343° |
| 2026-05-07 18:25 | 52.40395 | 4.71350 | 3773 ft | 257 kts | 343° |
| 2026-05-07 18:25 | 52.42141 | 4.70442 | 4530 ft | 267 kts | 343° |
| 2026-05-07 18:25 | 52.43912 | 4.69532 | 5459 ft | 271 kts | 343° |
| 2026-05-07 18:26 | 52.45667 | 4.68409 | 6356 ft | 276 kts | 328° |
| 2026-05-07 18:26 | 52.47019 | 4.66218 | 7278 ft | 279 kts | 301° |
| 2026-05-07 18:26 | 52.47613 | 4.63285 | 8188 ft | 279 kts | 272° |
| 2026-05-07 18:26 | 52.47286 | 4.60234 | 9114 ft | 279 kts | 245° |
| 2026-05-07 18:27 | 52.46242 | 4.57525 | 9977 ft | 282 kts | 235° |
| 2026-05-07 18:27 | 52.45109 | 4.54918 | 10653 ft | 291 kts | 235° |
| 2026-05-07 18:27 | 52.43897 | 4.52122 | 11087 ft | 309 kts | 235° |
| 2026-05-07 18:27 | 52.42624 | 4.49165 | 11488 ft | 327 kts | 235° |
| 2026-05-07 18:28 | 52.41298 | 4.46062 | 12081 ft | 338 kts | 236° |
| 2026-05-07 18:28 | 52.39944 | 4.42888 | 12684 ft | 342 kts | 236° |
| 2026-05-07 18:28 | 52.38585 | 4.39701 | 13001 ft | 343 kts | 236° |
| 2026-05-07 18:28 | 52.37220 | 4.36498 | 13050 ft | 343 kts | 236° |
| 2026-05-07 18:29 | 52.35849 | 4.33280 | 13061 ft | 343 kts | 235° |
| 2026-05-07 18:29 | 52.34504 | 4.30112 | 13080 ft | 343 kts | 235° |
| 2026-05-07 18:29 | 52.33138 | 4.26902 | 13064 ft | 343 kts | 235° |
| 2026-05-07 18:29 | 52.31777 | 4.23708 | 13126 ft | 348 kts | 235° |
| 2026-05-07 18:30 | 52.30374 | 4.20421 | 13758 ft | 353 kts | 235° |
| 2026-05-07 18:30 | 52.28973 | 4.17149 | 14627 ft | 352 kts | 235° |
| 2026-05-07 18:30 | 52.28136 | 4.15198 | 15114 ft | 354 kts | 235° |
| 2026-05-07 18:30 | 52.26773 | 4.12021 | 15795 ft | 357 kts | 235° |
| 2026-05-07 18:31 | 52.25352 | 4.08714 | 16487 ft | 360 kts | 235° |
| 2026-05-07 18:31 | 52.23912 | 4.05369 | 17179 ft | 363 kts | 235° |
| 2026-05-07 18:31 | 52.22467 | 4.02017 | 17837 ft | 366 kts | 235° |
| 2026-05-07 18:31 | 52.21000 | 3.98615 | 18484 ft | 369 kts | 235° |
| 2026-05-07 18:32 | 52.19564 | 3.95291 | 19106 ft | 372 kts | 235° |
| 2026-05-07 18:32 | 52.18080 | 3.91861 | 19737 ft | 375 kts | 235° |
| 2026-05-07 18:32 | 52.16564 | 3.88361 | 20357 ft | 378 kts | 235° |
| 2026-05-07 18:32 | 52.15039 | 3.84847 | 20937 ft | 382 kts | 235° |
| 2026-05-07 18:33 | 52.13518 | 3.81347 | 21488 ft | 385 kts | 235° |
| 2026-05-07 18:33 | 52.11956 | 3.77758 | 22053 ft | 388 kts | 235° |
| 2026-05-07 18:33 | 52.10409 | 3.74206 | 22603 ft | 391 kts | 235° |
| 2026-05-07 18:33 | 52.08834 | 3.70593 | 23140 ft | 394 kts | 235° |
| 2026-05-07 18:34 | 52.07243 | 3.66951 | 23659 ft | 396 kts | 235° |
| 2026-05-07 18:34 | 52.05649 | 3.63305 | 24002 ft | 399 kts | 235° |
| 2026-05-07 18:34 | 52.04044 | 3.59640 | 24050 ft | 399 kts | 235° |
| 2026-05-07 18:34 | 52.02451 | 3.56007 | 24059 ft | 398 kts | 235° |
| 2026-05-07 18:35 | 52.00831 | 3.52324 | 24065 ft | 398 kts | 235° |
| 2026-05-07 18:35 | 51.99227 | 3.48687 | 24065 ft | 397 kts | 235° |
| 2026-05-07 18:35 | 51.97601 | 3.45066 | 24069 ft | 397 kts | 234° |
| 2026-05-07 18:35 | 51.95977 | 3.41474 | 24067 ft | 397 kts | 234° |
| 2026-05-07 18:36 | 51.94340 | 3.37864 | 24065 ft | 397 kts | 234° |
| 2026-05-07 18:36 | 51.92726 | 3.34301 | 24066 ft | 397 kts | 234° |
| 2026-05-07 18:36 | 51.91083 | 3.30669 | 24070 ft | 396 kts | 234° |
| 2026-05-07 18:36 | 51.89465 | 3.27099 | 24071 ft | 397 kts | 234° |
| 2026-05-07 18:37 | 51.87835 | 3.23535 | 24061 ft | 397 kts | 234° |
| 2026-05-07 18:37 | 51.86211 | 3.19875 | 24063 ft | 397 kts | 236° |
| 2026-05-07 18:37 | 51.84739 | 3.16180 | 24066 ft | 397 kts | 239° |
| 2026-05-07 18:37 | 51.83362 | 3.12276 | 24065 ft | 397 kts | 242° |
| 2026-05-07 18:38 | 51.82100 | 3.08317 | 24061 ft | 397 kts | 243° |
| 2026-05-07 18:38 | 51.80854 | 3.04368 | 24057 ft | 397 kts | 243° |
| 2026-05-07 18:38 | 51.79594 | 3.00376 | 24059 ft | 397 kts | 243° |
| 2026-05-07 18:38 | 51.78343 | 2.96418 | 24055 ft | 397 kts | 243° |
| 2026-05-07 18:39 | 51.77080 | 2.92434 | 24053 ft | 396 kts | 243° |
| 2026-05-07 18:39 | 51.75837 | 2.88518 | 24057 ft | 396 kts | 243° |
| 2026-05-07 18:39 | 51.74578 | 2.84559 | 24054 ft | 395 kts | 243° |
| 2026-05-07 18:39 | 51.73325 | 2.80630 | 24055 ft | 395 kts | 243° |
| 2026-05-07 18:40 | 51.72063 | 2.76681 | 24053 ft | 395 kts | 243° |
| 2026-05-07 18:40 | 51.70791 | 2.72701 | 24054 ft | 395 kts | 244° |
| 2026-05-07 18:40 | 51.69681 | 2.68680 | 24053 ft | 395 kts | 249° |
| 2026-05-07 18:40 | 51.68829 | 2.64499 | 24052 ft | 395 kts | 255° |
| 2026-05-07 18:41 | 51.68251 | 2.60206 | 24052 ft | 395 kts | 260° |
| 2026-05-07 18:41 | 51.67839 | 2.55819 | 24052 ft | 396 kts | 262° |
| 2026-05-07 18:41 | 51.67465 | 2.51485 | 24051 ft | 396 kts | 262° |
| 2026-05-07 18:41 | 51.67078 | 2.47065 | 24051 ft | 396 kts | 262° |
| 2026-05-07 18:42 | 51.66685 | 2.42714 | 24051 ft | 396 kts | 262° |
| 2026-05-07 18:42 | 51.66284 | 2.38323 | 24050 ft | 396 kts | 262° |
| 2026-05-07 18:42 | 51.65880 | 2.33927 | 24050 ft | 395 kts | 261° |
| 2026-05-07 18:42 | 51.65477 | 2.29555 | 24048 ft | 395 kts | 261° |
| 2026-05-07 18:43 | 51.65077 | 2.25218 | 24052 ft | 395 kts | 261° |
| 2026-05-07 18:43 | 51.64673 | 2.20859 | 24051 ft | 395 kts | 261° |
| 2026-05-07 18:43 | 51.64263 | 2.16493 | 23970 ft | 389 kts | 261° |
| 2026-05-07 18:43 | 51.63868 | 2.12286 | 23252 ft | 379 kts | 261° |
| 2026-05-07 18:44 | 51.63487 | 2.08200 | 22532 ft | 369 kts | 261° |
| 2026-05-07 18:44 | 51.63113 | 2.04133 | 22066 ft | 365 kts | 261° |
| 2026-05-07 18:44 | 51.62741 | 2.00108 | 21610 ft | 361 kts | 261° |
| 2026-05-07 18:44 | 51.62376 | 1.96174 | 21165 ft | 358 kts | 261° |
| 2026-05-07 18:45 | 51.62008 | 1.92220 | 20727 ft | 357 kts | 261° |
| 2026-05-07 18:45 | 51.61631 | 1.88307 | 20279 ft | 355 kts | 258° |
| 2026-05-07 18:45 | 51.60927 | 1.84533 | 19823 ft | 353 kts | 247° |
| 2026-05-07 18:45 | 51.59759 | 1.81076 | 19375 ft | 352 kts | 236° |
| 2026-05-07 18:46 | 51.58225 | 1.77993 | 18933 ft | 352 kts | 230° |
| 2026-05-07 18:46 | 51.56627 | 1.75090 | 18492 ft | 352 kts | 229° |
| 2026-05-07 18:46 | 51.54989 | 1.72154 | 18046 ft | 351 kts | 229° |
| 2026-05-07 18:46 | 51.53357 | 1.69220 | 17599 ft | 351 kts | 229° |
| 2026-05-07 18:47 | 51.51754 | 1.66324 | 17159 ft | 350 kts | 229° |
| 2026-05-07 18:47 | 51.50173 | 1.63348 | 16708 ft | 350 kts | 233° |
| 2026-05-07 18:47 | 51.48853 | 1.60122 | 16266 ft | 349 kts | 241° |
| 2026-05-07 18:47 | 51.47827 | 1.56622 | 15823 ft | 349 kts | 248° |
| 2026-05-07 18:48 | 51.46979 | 1.52997 | 15381 ft | 348 kts | 250° |
| 2026-05-07 18:48 | 51.46166 | 1.49381 | 14940 ft | 347 kts | 250° |
| 2026-05-07 18:48 | 51.45348 | 1.45760 | 14500 ft | 346 kts | 249° |
| 2026-05-07 18:48 | 51.44522 | 1.42147 | 14136 ft | 346 kts | 249° |
| 2026-05-07 18:49 | 51.43481 | 1.38668 | 14056 ft | 346 kts | 237° |
| 2026-05-07 18:49 | 51.41933 | 1.35711 | 14048 ft | 347 kts | 222° |
| 2026-05-07 18:49 | 51.40058 | 1.33319 | 14052 ft | 347 kts | 216° |
| 2026-05-07 18:49 | 51.38183 | 1.31106 | 14047 ft | 347 kts | 216° |
| 2026-05-07 18:50 | 51.36235 | 1.28831 | 14048 ft | 347 kts | 216° |
| 2026-05-07 18:50 | 51.34291 | 1.26556 | 14042 ft | 347 kts | 216° |
| 2026-05-07 18:50 | 51.32328 | 1.24250 | 14045 ft | 347 kts | 216° |
| 2026-05-07 18:50 | 51.30393 | 1.21973 | 14048 ft | 347 kts | 216° |
| 2026-05-07 18:51 | 51.28461 | 1.19699 | 14041 ft | 346 kts | 216° |
| 2026-05-07 18:51 | 51.26541 | 1.17439 | 14043 ft | 346 kts | 216° |
| 2026-05-07 18:51 | 51.24594 | 1.15149 | 14043 ft | 346 kts | 216° |
| 2026-05-07 18:51 | 51.22664 | 1.12880 | 14045 ft | 346 kts | 216° |
| 2026-05-07 18:52 | 51.20726 | 1.10606 | 14042 ft | 346 kts | 216° |
| 2026-05-07 18:52 | 51.18783 | 1.08327 | 14040 ft | 346 kts | 216° |
| 2026-05-07 18:52 | 51.16843 | 1.06054 | 14039 ft | 347 kts | 216° |
| 2026-05-07 18:52 | 51.14899 | 1.03779 | 14042 ft | 347 kts | 216° |
| 2026-05-07 18:53 | 51.12953 | 1.01506 | 14043 ft | 347 kts | 216° |
| 2026-05-07 18:53 | 51.11018 | 0.99247 | 14037 ft | 347 kts | 216° |
| 2026-05-07 18:53 | 51.09067 | 0.96973 | 14032 ft | 348 kts | 216° |
| 2026-05-07 18:53 | 51.07141 | 0.94636 | 14028 ft | 347 kts | 221° |
| 2026-05-07 18:54 | 51.05518 | 0.91795 | 14031 ft | 347 kts | 234° |
| 2026-05-07 18:54 | 51.04317 | 0.88515 | 14041 ft | 347 kts | 243° |
| 2026-05-07 18:54 | 51.03281 | 0.85051 | 14042 ft | 346 kts | 245° |
| 2026-05-07 18:54 | 51.02271 | 0.81576 | 14052 ft | 346 kts | 245° |
| 2026-05-07 18:55 | 51.01266 | 0.78145 | 14050 ft | 345 kts | 244° |
| 2026-05-07 18:55 | 51.00259 | 0.74749 | 14039 ft | 330 kts | 244° |
| 2026-05-07 18:55 | 50.99302 | 0.71542 | 14038 ft | 315 kts | 244° |
| 2026-05-07 18:55 | 50.98393 | 0.68509 | 14049 ft | 301 kts | 244° |
| 2026-05-07 18:56 | 50.97492 | 0.65508 | 14046 ft | 300 kts | 244° |
| 2026-05-07 18:56 | 50.96598 | 0.62536 | 14043 ft | 300 kts | 244° |
| 2026-05-07 18:56 | 50.95693 | 0.59537 | 14044 ft | 300 kts | 244° |
| 2026-05-07 18:56 | 50.94798 | 0.56578 | 14040 ft | 300 kts | 244° |
| 2026-05-07 18:57 | 50.93899 | 0.53606 | 13948 ft | 296 kts | 244° |
| 2026-05-07 18:57 | 50.93020 | 0.50702 | 13473 ft | 296 kts | 244° |
| 2026-05-07 18:57 | 50.92136 | 0.47784 | 13051 ft | 296 kts | 244° |
| 2026-05-07 18:57 | 50.91487 | 0.44706 | 12680 ft | 296 kts | 264° |
| 2026-05-07 18:58 | 50.91694 | 0.41475 | 12353 ft | 295 kts | 284° |
| 2026-05-07 18:58 | 50.92271 | 0.38390 | 12030 ft | 294 kts | 286° |
| 2026-05-07 18:58 | 50.92868 | 0.35288 | 11671 ft | 293 kts | 286° |
| 2026-05-07 18:58 | 50.93450 | 0.32202 | 11337 ft | 291 kts | 285° |
| 2026-05-07 18:59 | 50.94010 | 0.29183 | 11105 ft | 286 kts | 285° |
| 2026-05-07 18:59 | 50.94876 | 0.26356 | 10851 ft | 283 kts | 309° |
| 2026-05-07 18:59 | 50.96367 | 0.24406 | 10720 ft | 276 kts | 327° |
| 2026-05-07 18:59 | 50.98014 | 0.22917 | 10567 ft | 269 kts | 330° |
| 2026-05-07 19:00 | 50.99628 | 0.21556 | 10305 ft | 264 kts | 331° |
| 2026-05-07 19:00 | 51.01260 | 0.20195 | 9975 ft | 264 kts | 331° |
| 2026-05-07 19:00 | 51.02879 | 0.18841 | 9690 ft | 264 kts | 331° |
| 2026-05-07 19:00 | 51.04422 | 0.17245 | 9345 ft | 263 kts | 313° |
| 2026-05-07 19:01 | 51.05351 | 0.14829 | 9008 ft | 260 kts | 284° |
| 2026-05-07 19:01 | 51.05506 | 0.12055 | 8654 ft | 249 kts | 265° |
| 2026-05-07 19:01 | 51.05346 | 0.09334 | 8331 ft | 247 kts | 262° |
| 2026-05-07 19:01 | 51.05128 | 0.06626 | 8078 ft | 244 kts | 261° |
| 2026-05-07 19:02 | 51.04905 | 0.03977 | 8048 ft | 245 kts | 261° |
| 2026-05-07 19:02 | 51.04676 | 0.01291 | 8046 ft | 246 kts | 261° |
| 2026-05-07 19:02 | 51.04447 | -0.01390 | 8042 ft | 246 kts | 261° |
| 2026-05-07 19:02 | 51.04217 | -0.04087 | 8040 ft | 246 kts | 261° |
| 2026-05-07 19:03 | 51.03984 | -0.06804 | 8043 ft | 247 kts | 261° |
| 2026-05-07 19:03 | 51.03752 | -0.09492 | 8041 ft | 247 kts | 261° |
| 2026-05-07 19:03 | 51.03517 | -0.12179 | 8041 ft | 247 kts | 261° |
| 2026-05-07 19:03 | 51.03282 | -0.14860 | 8036 ft | 247 kts | 261° |
| 2026-05-07 19:04 | 51.03043 | -0.17583 | 8031 ft | 245 kts | 261° |
| 2026-05-07 19:04 | 51.02812 | -0.20219 | 7796 ft | 244 kts | 261° |
| 2026-05-07 19:04 | 51.02576 | -0.22920 | 7456 ft | 245 kts | 261° |
| 2026-05-07 19:04 | 51.02345 | -0.25568 | 7157 ft | 245 kts | 261° |
| 2026-05-07 19:05 | 51.02112 | -0.28261 | 6864 ft | 245 kts | 261° |
| 2026-05-07 19:05 | 51.01880 | -0.30924 | 6562 ft | 245 kts | 261° |
| 2026-05-07 19:05 | 51.01646 | -0.33605 | 6294 ft | 242 kts | 261° |
| 2026-05-07 19:05 | 51.01414 | -0.36227 | 5920 ft | 239 kts | 261° |
| 2026-05-07 19:06 | 51.01184 | -0.38796 | 5542 ft | 233 kts | 261° |
| 2026-05-07 19:06 | 51.00733 | -0.43781 | 4777 ft | 222 kts | 261° |
| 2026-05-07 19:06 | 51.00629 | -0.46185 | 4355 ft | 221 kts | 280° |
| 2026-05-07 19:07 | 51.01270 | -0.48364 | 3874 ft | 220 kts | 316° |
| 2026-05-07 19:07 | 51.02499 | -0.49651 | 3525 ft | 212 kts | 337° |
| 2026-05-07 19:07 | 51.03869 | -0.50555 | 3276 ft | 209 kts | 341° |
| 2026-05-07 19:07 | 51.05208 | -0.51355 | 3154 ft | 203 kts | 341° |
| 2026-05-07 19:08 | 51.06519 | -0.52123 | 3034 ft | 198 kts | 341° |
| 2026-05-07 19:08 | 51.07796 | -0.52853 | 2987 ft | 193 kts | 347° |
| 2026-05-07 19:08 | 51.09090 | -0.52864 | 2952 ft | 186 kts | 25° |
| 2026-05-07 19:08 | 51.10066 | -0.51592 | 2971 ft | 180 kts | 62° |
| 2026-05-07 19:09 | 51.10544 | -0.49770 | 2989 ft | 182 kts | 75° |
| 2026-05-07 19:09 | 51.10880 | -0.47813 | 2983 ft | 183 kts | 78° |
| 2026-05-07 19:09 | 51.11171 | -0.45860 | 2979 ft | 183 kts | 79° |
| 2026-05-07 19:09 | 51.11444 | -0.43880 | 2976 ft | 182 kts | 79° |
| 2026-05-07 19:10 | 51.11702 | -0.41952 | 2904 ft | 172 kts | 80° |
| 2026-05-07 19:10 | 51.11950 | -0.40092 | 2666 ft | 171 kts | 80° |
| 2026-05-07 19:10 | 51.12194 | -0.38262 | 2431 ft | 169 kts | 80° |
| 2026-05-07 19:10 | 51.12433 | -0.36485 | 2194 ft | 160 kts | 80° |
| 2026-05-07 19:11 | 51.12662 | -0.34788 | 1980 ft | 158 kts | 80° |
| 2026-05-07 19:11 | 51.12895 | -0.33070 | 1793 ft | 157 kts | 80° |
| 2026-05-07 19:11 | 51.13099 | -0.31567 | 1597 ft | 154 kts | 80° |
| 2026-05-07 19:11 | 51.13320 | -0.29947 | 1382 ft | 145 kts | 80° |
| 2026-05-07 19:12 | 51.13527 | -0.28437 | 1175 ft | 133 kts | 80° |
| 2026-05-07 19:12 | 51.13718 | -0.27045 | 971 ft | 127 kts | 80° |
| 2026-05-07 19:12 | 51.13907 | -0.25671 | 758 ft | 127 kts | 79° |
| 2026-05-07 19:12 | 51.14098 | -0.24286 | 591 ft | 125 kts | 79° |
| 2026-05-07 19:13 | 51.14285 | -0.22926 | 427 ft | 124 kts | 79° |
| 2026-05-07 19:13 | 51.14462 | -0.21598 | 308 ft | 122 kts | 79° |
| 2026-05-07 19:13 | 51.14646 | -0.20256 | 212 ft | 120 kts | 78° |
| 2026-05-07 19:13 | 51.14805 | -0.19099 | 195 ft | 87 kts | 77° |
| 2026-05-07 19:14 | 51.14901 | -0.18408 | 195 ft | 48 kts | 77° |
| 2026-05-07 19:14 | 51.14983 | -0.17966 | 195 ft | 33 kts | 62° |
| 2026-05-07 19:14 | 51.15062 | -0.17783 | 195 ft | 12 kts | 51° |
| 2026-05-07 19:14 | 51.15109 | -0.17759 | 195 ft | 4 kts | 340° |
| 2026-05-07 19:15 | 51.15151 | -0.17769 | 194 ft | 8 kts | 357° |
| 2026-05-07 19:15 | 51.15232 | -0.17778 | 193 ft | 9 kts | 5° |
| 2026-05-07 19:15 | 51.15263 | -0.17689 | 192 ft | 10 kts | 79° |
| 2026-05-07 19:15 | 51.15273 | -0.17617 | 192 ft | 5 kts | 77° |
| 2026-05-07 19:16 | 51.15276 | -0.17600 | 192 ft | 2 kts | 78° |
| 2026-05-07 19:16 | 51.15280 | -0.17563 | 192 ft | 4 kts | 79° |
| 2026-05-07 19:16 | 51.15288 | -0.17504 | 192 ft | 6 kts | 78° |
| 2026-05-07 19:16 | 51.15295 | -0.17454 | 190 ft | 1 kts | 77° |
| 2026-05-07 19:17 | 51.15296 | -0.17449 | 190 ft | 2 kts | 77° |
| 2026-05-07 19:17 | 51.15308 | -0.17384 | 187 ft | 11 kts | 49° |
| 2026-05-07 19:17 | 51.15393 | -0.17387 | 188 ft | 13 kts | 346° |
| 2026-05-07 19:17 | 51.15469 | -0.17415 | 191 ft | 10 kts | 348° |
| 2026-05-07 19:18 | 51.15548 | -0.17441 | 193 ft | 17 kts | 348° |
| 2026-05-07 19:18 | 51.15678 | -0.17485 | 195 ft | 14 kts | 348° |
| 2026-05-07 19:18 | 51.15751 | -0.17536 | 196 ft | 11 kts | 289° |
| 2026-05-07 19:18 | 51.15735 | -0.17675 | 195 ft | 9 kts | 257° |
| 2026-05-07 19:19 | 51.15721 | -0.17772 | 194 ft | 8 kts | 257° |
| 2026-05-07 19:19 | 51.15705 | -0.17884 | 192 ft | 12 kts | 259° |
| 2026-05-07 19:19 | 51.15698 | -0.17950 | 192 ft | 0 kts | 259° |
| 2026-05-07 19:19 | 51.15698 | -0.17953 | 192 ft | 1 kts | 259° |
| 2026-05-07 19:20 | 51.15716 | -0.17992 | 192 ft | 7 kts | 21° |
| 2026-05-07 19:20 | 51.15758 | -0.17952 | 192 ft | 5 kts | 33° |
| 2026-05-07 19:20 | 51.15768 | -0.17941 | 192 ft | 0 kts | 32° |
| 2026-05-07 19:20 | 51.15773 | -0.17937 | 192 ft | 0 kts | 33° |